PWSweather.com
Personal Weather Stations
Station Observations
719732
Ponferrada, PonferradaES 24411

PonferradaPonferradaES 24411

Lat: 42.5728, Lon: -6.6425

Elevation: 1676

Station Type: PCE-FWS 20 con garita Ambient Weather SRS100LX

www.meteo.spyfly.es

High Low Average
Temperature 87.4°F30.8°C 52.0°F11.1°C 66.9°F19.4°C
Dew Point 61.5°F16.4°C 51.4°F10.8°C 56.7°F13.7°C
Winds 6.0 mph 9.7 kmh Calm Calm 1.0 mph ESE1.6 kmh ESE
Wind Gusts 10.7 mph17.2 kmh -- 4.0 mph6.4 kmh
Humidity 99% 33% 74%
Pressure 30.09 in1019.0 mb 29.98 in1015.2 mb -
Precipitation 0.00 in0.0 mm - -
Hour Temp Dew Point Humidity Winds Wind Gusts Pressure Precip Precip Rate Daily Precip Total
12:00 AM 60.6°F15.9°C 56.4°F13.6°C 86% 2.2 mph NNE3.5 kmh NNE 6.9 mph11.1 kmh 30.06 in1017.9 mb 0.00 in0.0 mm 0.00 in0.0 mm 0.00 in0.0 mm
12:05 AM 60.6°F15.9°C 56.4°F13.6°C 86% 2.2 mph NE3.5 kmh NE 6.0 mph9.7 kmh 30.06 in1017.9 mb 0.00 in0.0 mm 0.00 in0.0 mm 0.00 in0.0 mm
12:10 AM 60.6°F15.9°C 56.4°F13.6°C 86% 3.1 mph ENE5.0 kmh ENE 6.0 mph9.7 kmh 30.06 in1017.9 mb 0.00 in0.0 mm 0.00 in0.0 mm 0.00 in0.0 mm
12:15 AM 61.0°F16.1°C 56.8°F13.8°C 86% 1.6 mph ENE2.6 kmh ENE 6.0 mph9.7 kmh 30.06 in1017.9 mb 0.00 in0.0 mm 0.00 in0.0 mm 0.00 in0.0 mm
12:20 AM 61.0°F16.1°C 57.1°F13.9°C 87% 4.5 mph NE7.2 kmh NE 6.0 mph9.7 kmh 30.06 in1017.9 mb 0.00 in0.0 mm 0.00 in0.0 mm 0.00 in0.0 mm
12:25 AM 61.3°F16.3°C 57.8°F14.3°C 88% 6.0 mph NE9.7 kmh NE 10.7 mph17.2 kmh 30.06 in1017.9 mb 0.00 in0.0 mm 0.00 in0.0 mm 0.00 in0.0 mm
12:30 AM 61.7°F16.5°C 58.1°F14.5°C 88% 5.4 mph NNE8.7 kmh NNE 10.7 mph17.2 kmh 30.06 in1017.9 mb 0.00 in0.0 mm 0.00 in0.0 mm 0.00 in0.0 mm
12:35 AM 61.7°F16.5°C 57.8°F14.3°C 87% 3.1 mph NE5.0 kmh NE 9.2 mph14.8 kmh 30.06 in1017.9 mb 0.00 in0.0 mm 0.00 in0.0 mm 0.00 in0.0 mm
12:40 AM 61.7°F16.5°C 57.8°F14.3°C 87% 2.2 mph NNE3.5 kmh NNE 7.6 mph12.2 kmh 30.06 in1017.9 mb 0.00 in0.0 mm 0.00 in0.0 mm 0.00 in0.0 mm
12:45 AM 61.7°F16.5°C 57.5°F14.2°C 86% 4.5 mph NNE7.2 kmh NNE 6.9 mph11.1 kmh 30.05 in1017.6 mb 0.00 in0.0 mm 0.00 in0.0 mm 0.00 in0.0 mm
12:50 AM 61.7°F16.5°C 57.5°F14.2°C 86% 3.8 mph N6.1 kmh N 6.9 mph11.1 kmh 30.06 in1017.9 mb 0.00 in0.0 mm 0.00 in0.0 mm 0.00 in0.0 mm
12:55 AM 61.5°F16.4°C 57.3°F14.1°C 86% 4.5 mph N7.2 kmh N 6.9 mph11.1 kmh 30.05 in1017.6 mb 0.00 in0.0 mm 0.00 in0.0 mm 0.00 in0.0 mm
01:00 AM 61.2°F16.2°C 57.0°F13.9°C 86% 4.5 mph N7.2 kmh N 6.9 mph11.1 kmh 30.05 in1017.6 mb 0.00 in0.0 mm 0.00 in0.0 mm 0.00 in0.0 mm
01:05 AM 61.2°F16.2°C 57.0°F13.9°C 86% 2.2 mph N3.5 kmh N 6.0 mph9.7 kmh 30.05 in1017.6 mb 0.00 in0.0 mm 0.00 in0.0 mm 0.00 in0.0 mm
01:10 AM 61.0°F16.1°C 57.1°F13.9°C 87% 1.6 mph NW2.6 kmh NW 5.4 mph8.7 kmh 30.05 in1017.6 mb 0.00 in0.0 mm 0.00 in0.0 mm 0.00 in0.0 mm
01:15 AM 61.0°F16.1°C 57.1°F13.9°C 87% 0.7 mph NNW1.1 kmh NNW 3.8 mph6.1 kmh 30.06 in1017.9 mb 0.00 in0.0 mm 0.00 in0.0 mm 0.00 in0.0 mm
01:20 AM 60.8°F16.0°C 56.9°F13.8°C 87% Calm Calm 3.8 mph6.1 kmh 30.06 in1017.9 mb 0.00 in0.0 mm 0.00 in0.0 mm 0.00 in0.0 mm
01:25 AM 61.0°F16.1°C 57.1°F13.9°C 87% Calm Calm 3.8 mph6.1 kmh 30.05 in1017.6 mb 0.00 in0.0 mm 0.00 in0.0 mm 0.00 in0.0 mm
01:30 AM 61.0°F16.1°C 57.1°F13.9°C 87% 0.7 mph WSW1.1 kmh WSW 3.1 mph5.0 kmh 30.05 in1017.6 mb 0.00 in0.0 mm 0.00 in0.0 mm 0.00 in0.0 mm
01:35 AM 60.8°F16.0°C 56.9°F13.8°C 87% 1.6 mph W2.6 kmh W 3.1 mph5.0 kmh 30.05 in1017.6 mb 0.00 in0.0 mm 0.00 in0.0 mm 0.00 in0.0 mm
01:40 AM 60.6°F15.9°C 57.1°F13.9°C 88% 3.8 mph S6.1 kmh S 4.5 mph7.2 kmh 30.05 in1017.6 mb 0.00 in0.0 mm 0.00 in0.0 mm 0.00 in0.0 mm
01:45 AM 60.4°F15.8°C 56.9°F13.8°C 88% 3.1 mph S5.0 kmh S 6.9 mph11.1 kmh 30.05 in1017.6 mb 0.00 in0.0 mm 0.00 in0.0 mm 0.00 in0.0 mm
01:50 AM 60.1°F15.6°C 56.2°F13.4°C 87% 1.6 mph S2.6 kmh S 6.9 mph11.1 kmh 30.05 in1017.6 mb 0.00 in0.0 mm 0.00 in0.0 mm 0.00 in0.0 mm
01:55 AM 59.7°F15.4°C 55.9°F13.3°C 87% 2.2 mph SW3.5 kmh SW 4.5 mph7.2 kmh 30.05 in1017.6 mb 0.00 in0.0 mm 0.00 in0.0 mm 0.00 in0.0 mm
02:00 AM 59.5°F15.3°C 56.0°F13.3°C 88% 1.6 mph SW2.6 kmh SW 3.8 mph6.1 kmh 30.05 in1017.6 mb 0.00 in0.0 mm 0.00 in0.0 mm 0.00 in0.0 mm
02:05 AM 59.2°F15.1°C 55.6°F13.1°C 88% Calm Calm 3.1 mph5.0 kmh 30.04 in1017.3 mb 0.00 in0.0 mm 0.00 in0.0 mm 0.00 in0.0 mm
02:10 AM 59.0°F15.0°C 55.5°F13.1°C 88% 1.6 mph WSW2.6 kmh WSW 3.1 mph5.0 kmh 30.04 in1017.3 mb 0.00 in0.0 mm 0.00 in0.0 mm 0.00 in0.0 mm
02:15 AM 58.8°F14.9°C 55.9°F13.3°C 90% 0.7 mph WSW1.1 kmh WSW 2.2 mph3.5 kmh 30.04 in1017.3 mb 0.00 in0.0 mm 0.00 in0.0 mm 0.00 in0.0 mm
02:20 AM 58.6°F14.8°C 55.7°F13.2°C 90% 2.2 mph S3.5 kmh S 3.1 mph5.0 kmh 30.04 in1017.3 mb 0.00 in0.0 mm 0.00 in0.0 mm 0.00 in0.0 mm
02:25 AM 58.6°F14.8°C 55.7°F13.2°C 90% 1.6 mph S2.6 kmh S 3.1 mph5.0 kmh 30.04 in1017.3 mb 0.00 in0.0 mm 0.00 in0.0 mm 0.00 in0.0 mm
02:30 AM 58.5°F14.7°C 55.5°F13.1°C 90% 1.6 mph S2.6 kmh S 3.8 mph6.1 kmh 30.04 in1017.3 mb 0.00 in0.0 mm 0.00 in0.0 mm 0.00 in0.0 mm
02:35 AM 58.5°F14.7°C 55.5°F13.1°C 90% Calm Calm 3.8 mph6.1 kmh 30.04 in1017.3 mb 0.00 in0.0 mm 0.00 in0.0 mm 0.00 in0.0 mm
02:40 AM 58.5°F14.7°C 55.5°F13.1°C 90% 1.6 mph NNW2.6 kmh NNW 3.8 mph6.1 kmh 30.04 in1017.3 mb 0.00 in0.0 mm 0.00 in0.0 mm 0.00 in0.0 mm
02:45 AM 58.3°F14.6°C 55.7°F13.2°C 91% 0.7 mph N1.1 kmh N 3.8 mph6.1 kmh 30.04 in1017.3 mb 0.00 in0.0 mm 0.00 in0.0 mm 0.00 in0.0 mm
02:50 AM 58.1°F14.5°C 55.5°F13.1°C 91% Calm Calm 2.2 mph3.5 kmh 30.04 in1017.3 mb 0.00 in0.0 mm 0.00 in0.0 mm 0.00 in0.0 mm
02:55 AM 58.1°F14.5°C 55.8°F13.2°C 92% 2.2 mph ENE3.5 kmh ENE 3.1 mph5.0 kmh 30.04 in1017.3 mb 0.00 in0.0 mm 0.00 in0.0 mm 0.00 in0.0 mm
03:00 AM 58.1°F14.5°C 55.8°F13.2°C 92% 3.1 mph E5.0 kmh E 3.8 mph6.1 kmh 30.04 in1017.3 mb 0.00 in0.0 mm 0.00 in0.0 mm 0.00 in0.0 mm
03:05 AM 58.1°F14.5°C 55.8°F13.2°C 92% 1.6 mph SE2.6 kmh SE 3.8 mph6.1 kmh 30.04 in1017.3 mb 0.00 in0.0 mm 0.00 in0.0 mm 0.00 in0.0 mm
03:10 AM 58.3°F14.6°C 56.3°F13.5°C 93% 0.7 mph SE1.1 kmh SE 3.8 mph6.1 kmh 30.04 in1017.3 mb 0.00 in0.0 mm 0.00 in0.0 mm 0.00 in0.0 mm
03:15 AM 58.3°F14.6°C 56.3°F13.5°C 93% 0.7 mph E1.1 kmh E 3.1 mph5.0 kmh 30.04 in1017.3 mb 0.00 in0.0 mm 0.00 in0.0 mm 0.00 in0.0 mm
03:20 AM 58.3°F14.6°C 56.3°F13.5°C 93% 1.6 mph E2.6 kmh E 3.1 mph5.0 kmh 30.04 in1017.3 mb 0.00 in0.0 mm 0.00 in0.0 mm 0.00 in0.0 mm
03:25 AM 58.3°F14.6°C 56.3°F13.5°C 93% 1.6 mph NNE2.6 kmh NNE 2.2 mph3.5 kmh 30.04 in1017.3 mb 0.00 in0.0 mm 0.00 in0.0 mm 0.00 in0.0 mm
03:30 AM 58.1°F14.5°C 56.1°F13.4°C 93% 1.6 mph N2.6 kmh N 2.2 mph3.5 kmh 30.04 in1017.3 mb 0.00 in0.0 mm 0.00 in0.0 mm 0.00 in0.0 mm
03:35 AM 57.9°F14.4°C 55.9°F13.3°C 93% 1.6 mph NNE2.6 kmh NNE 2.2 mph3.5 kmh 30.04 in1017.3 mb 0.00 in0.0 mm 0.00 in0.0 mm 0.00 in0.0 mm
03:40 AM 57.9°F14.4°C 55.9°F13.3°C 93% 0.7 mph NNE1.1 kmh NNE 2.2 mph3.5 kmh 30.04 in1017.3 mb 0.00 in0.0 mm 0.00 in0.0 mm 0.00 in0.0 mm
03:45 AM 57.7°F14.3°C 55.7°F13.2°C 93% Calm Calm 1.6 mph2.6 kmh 30.03 in1016.9 mb 0.00 in0.0 mm 0.00 in0.0 mm 0.00 in0.0 mm
03:50 AM 57.4°F14.1°C 55.7°F13.2°C 94% 1.6 mph N2.6 kmh N 2.2 mph3.5 kmh 30.04 in1017.3 mb 0.00 in0.0 mm 0.00 in0.0 mm 0.00 in0.0 mm
03:55 AM 57.2°F14.0°C 55.5°F13.1°C 94% 1.6 mph N2.6 kmh N 2.2 mph3.5 kmh 30.04 in1017.3 mb 0.00 in0.0 mm 0.00 in0.0 mm 0.00 in0.0 mm
04:00 AM 57.2°F14.0°C 55.5°F13.1°C 94% 1.6 mph NNE2.6 kmh NNE 3.1 mph5.0 kmh 30.04 in1017.3 mb 0.00 in0.0 mm 0.00 in0.0 mm 0.00 in0.0 mm
04:05 AM 57.0°F13.9°C 55.6°F13.1°C 95% 2.2 mph NNE3.5 kmh NNE 3.1 mph5.0 kmh 30.04 in1017.3 mb 0.00 in0.0 mm 0.00 in0.0 mm 0.00 in0.0 mm
04:10 AM 56.8°F13.8°C 55.4°F13.0°C 95% 1.6 mph N2.6 kmh N 3.1 mph5.0 kmh 30.04 in1017.3 mb 0.00 in0.0 mm 0.00 in0.0 mm 0.00 in0.0 mm
04:15 AM 56.7°F13.7°C 55.5°F13.1°C 96% 0.7 mph NNE1.1 kmh NNE 3.1 mph5.0 kmh 30.04 in1017.3 mb 0.00 in0.0 mm 0.00 in0.0 mm 0.00 in0.0 mm
04:20 AM 56.7°F13.7°C 55.5°F13.1°C 96% 0.7 mph NNE1.1 kmh NNE 2.2 mph3.5 kmh 30.04 in1017.3 mb 0.00 in0.0 mm 0.00 in0.0 mm 0.00 in0.0 mm
04:25 AM 56.7°F13.7°C 55.5°F13.1°C 96% 1.6 mph N2.6 kmh N 2.2 mph3.5 kmh 30.04 in1017.3 mb 0.00 in0.0 mm 0.00 in0.0 mm 0.00 in0.0 mm
04:30 AM 56.7°F13.7°C 55.5°F13.1°C 96% 1.6 mph NNE2.6 kmh NNE 3.1 mph5.0 kmh 30.03 in1016.9 mb 0.00 in0.0 mm 0.00 in0.0 mm 0.00 in0.0 mm
04:35 AM 56.7°F13.7°C 55.8°F13.2°C 97% 0.7 mph NNE1.1 kmh NNE 3.8 mph6.1 kmh 30.04 in1017.3 mb 0.00 in0.0 mm 0.00 in0.0 mm 0.00 in0.0 mm
04:40 AM 56.7°F13.7°C 55.8°F13.2°C 97% Calm Calm 3.8 mph6.1 kmh 30.03 in1016.9 mb 0.00 in0.0 mm 0.00 in0.0 mm 0.00 in0.0 mm
04:45 AM 56.7°F13.7°C 55.8°F13.2°C 97% 1.6 mph NNE2.6 kmh NNE 2.2 mph3.5 kmh 30.04 in1017.3 mb 0.00 in0.0 mm 0.00 in0.0 mm 0.00 in0.0 mm
04:50 AM 56.5°F13.6°C 55.6°F13.1°C 97% 0.7 mph NE1.1 kmh NE 2.2 mph3.5 kmh 30.03 in1016.9 mb 0.00 in0.0 mm 0.00 in0.0 mm 0.00 in0.0 mm
04:55 AM 56.3°F13.5°C 55.5°F13.1°C 97% 0.7 mph NE1.1 kmh NE 2.2 mph3.5 kmh 30.04 in1017.3 mb 0.00 in0.0 mm 0.00 in0.0 mm 0.00 in0.0 mm
05:00 AM 56.1°F13.4°C 55.3°F12.9°C 97% Calm Calm 2.2 mph3.5 kmh 30.04 in1017.3 mb 0.00 in0.0 mm 0.00 in0.0 mm 0.00 in0.0 mm
05:05 AM 56.1°F13.4°C 55.3°F12.9°C 97% Calm Calm 2.2 mph3.5 kmh 30.04 in1017.3 mb 0.00 in0.0 mm 0.00 in0.0 mm 0.00 in0.0 mm
05:10 AM 55.8°F13.2°C 54.9°F12.7°C 97% Calm Calm 0.7 mph1.1 kmh 30.04 in1017.3 mb 0.00 in0.0 mm 0.00 in0.0 mm 0.00 in0.0 mm
05:15 AM 55.6°F13.1°C 54.8°F12.7°C 97% 2.2 mph NW3.5 kmh NW 3.1 mph5.0 kmh 30.04 in1017.3 mb 0.00 in0.0 mm 0.00 in0.0 mm 0.00 in0.0 mm
05:20 AM 55.6°F13.1°C 54.8°F12.7°C 97% Calm Calm 3.1 mph5.0 kmh 30.04 in1017.3 mb 0.00 in0.0 mm 0.00 in0.0 mm 0.00 in0.0 mm
05:25 AM 55.6°F13.1°C 54.8°F12.7°C 97% Calm Calm 3.1 mph5.0 kmh 30.04 in1017.3 mb 0.00 in0.0 mm 0.00 in0.0 mm 0.00 in0.0 mm
05:30 AM 55.4°F13.0°C 54.9°F12.7°C 98% 0.7 mph SW1.1 kmh SW 2.2 mph3.5 kmh 30.03 in1016.9 mb 0.00 in0.0 mm 0.00 in0.0 mm 0.00 in0.0 mm
05:35 AM 55.4°F13.0°C 54.9°F12.7°C 98% Calm Calm 2.2 mph3.5 kmh 30.04 in1017.3 mb 0.00 in0.0 mm 0.00 in0.0 mm 0.00 in0.0 mm
05:40 AM 55.4°F13.0°C 54.9°F12.7°C 98% Calm Calm 2.2 mph3.5 kmh 30.03 in1016.9 mb 0.00 in0.0 mm 0.00 in0.0 mm 0.00 in0.0 mm
05:45 AM 55.4°F13.0°C 54.9°F12.7°C 98% 0.7 mph SSE1.1 kmh SSE 2.2 mph3.5 kmh 30.04 in1017.3 mb 0.00 in0.0 mm 0.00 in0.0 mm 0.00 in0.0 mm
05:50 AM 55.4°F13.0°C 54.9°F12.7°C 98% 0.7 mph S1.1 kmh S 2.2 mph3.5 kmh 30.04 in1017.3 mb 0.00 in0.0 mm 0.00 in0.0 mm 0.00 in0.0 mm
05:55 AM 55.2°F12.9°C 54.4°F12.4°C 97% Calm Calm 2.2 mph3.5 kmh 30.04 in1017.3 mb 0.00 in0.0 mm 0.00 in0.0 mm 0.00 in0.0 mm
06:00 AM 55.0°F12.8°C 54.2°F12.3°C 97% Calm Calm 0.7 mph1.1 kmh 30.04 in1017.3 mb 0.00 in0.0 mm 0.00 in0.0 mm 0.00 in0.0 mm
06:05 AM 54.7°F12.6°C 53.9°F12.2°C 97% 0.7 mph NW1.1 kmh NW 1.6 mph2.6 kmh 30.04 in1017.3 mb 0.00 in0.0 mm 0.00 in0.0 mm 0.00 in0.0 mm
06:10 AM 54.3°F12.4°C 53.5°F11.9°C 97% 0.7 mph NW1.1 kmh NW 1.6 mph2.6 kmh 30.04 in1017.3 mb 0.00 in0.0 mm 0.00 in0.0 mm 0.00 in0.0 mm
06:15 AM 54.1°F12.3°C 53.3°F11.8°C 97% Calm Calm 1.6 mph2.6 kmh 30.04 in1017.3 mb 0.00 in0.0 mm 0.00 in0.0 mm 0.00 in0.0 mm
06:20 AM 54.0°F12.2°C 53.1°F11.7°C 97% 0.7 mph NW1.1 kmh NW 2.2 mph3.5 kmh 30.04 in1017.3 mb 0.00 in0.0 mm 0.00 in0.0 mm 0.00 in0.0 mm
06:25 AM 54.0°F12.2°C 53.1°F11.7°C 97% 0.7 mph E1.1 kmh E 3.1 mph5.0 kmh 30.04 in1017.3 mb 0.00 in0.0 mm 0.00 in0.0 mm 0.00 in0.0 mm
06:30 AM 53.8°F12.1°C 53.0°F11.7°C 97% 1.6 mph ENE2.6 kmh ENE 3.1 mph5.0 kmh 30.04 in1017.3 mb 0.00 in0.0 mm 0.00 in0.0 mm 0.00 in0.0 mm
06:35 AM 53.6°F12.0°C 52.8°F11.6°C 97% Calm Calm 3.1 mph5.0 kmh 30.05 in1017.6 mb 0.00 in0.0 mm 0.00 in0.0 mm 0.00 in0.0 mm
06:40 AM 53.1°F11.7°C 52.5°F11.4°C 98% Calm Calm 2.2 mph3.5 kmh 30.05 in1017.6 mb 0.00 in0.0 mm 0.00 in0.0 mm 0.00 in0.0 mm
06:45 AM 53.1°F11.7°C 52.5°F11.4°C 98% 1.6 mph N2.6 kmh N 2.2 mph3.5 kmh 30.05 in1017.6 mb 0.00 in0.0 mm 0.00 in0.0 mm 0.00 in0.0 mm
06:50 AM 52.9°F11.6°C 52.3°F11.3°C 98% 0.7 mph NE1.1 kmh NE 2.2 mph3.5 kmh 30.05 in1017.6 mb 0.00 in0.0 mm 0.00 in0.0 mm 0.00 in0.0 mm
06:55 AM 52.7°F11.5°C 52.2°F11.2°C 98% Calm Calm 2.2 mph3.5 kmh 30.06 in1017.9 mb 0.00 in0.0 mm 0.00 in0.0 mm 0.00 in0.0 mm
07:00 AM 52.7°F11.5°C 52.2°F11.2°C 98% Calm Calm 1.6 mph2.6 kmh 30.06 in1017.9 mb 0.00 in0.0 mm 0.00 in0.0 mm 0.00 in0.0 mm
07:05 AM 52.7°F11.5°C 52.2°F11.2°C 98% Calm Calm 1.6 mph2.6 kmh 30.06 in1017.9 mb 0.00 in0.0 mm 0.00 in0.0 mm 0.00 in0.0 mm
07:10 AM 52.3°F11.3°C 51.8°F11.0°C 98% Calm Calm 1.6 mph2.6 kmh 30.06 in1017.9 mb 0.00 in0.0 mm 0.00 in0.0 mm 0.00 in0.0 mm
07:15 AM 52.2°F11.2°C 51.6°F10.9°C 98% Calm Calm 1.6 mph2.6 kmh 30.06 in1017.9 mb 0.00 in0.0 mm 0.00 in0.0 mm 0.00 in0.0 mm
07:20 AM 52.2°F11.2°C 51.6°F10.9°C 98% Calm Calm 1.6 mph2.6 kmh 30.06 in1017.9 mb 0.00 in0.0 mm 0.00 in0.0 mm 0.00 in0.0 mm
07:25 AM 52.0°F11.1°C 51.4°F10.8°C 98% 0.7 mph N1.1 kmh N 1.6 mph2.6 kmh 30.06 in1017.9 mb 0.00 in0.0 mm 0.00 in0.0 mm 0.00 in0.0 mm
07:30 AM 52.0°F11.1°C 51.4°F10.8°C 98% 0.7 mph N1.1 kmh N 2.2 mph3.5 kmh 30.06 in1017.9 mb 0.00 in0.0 mm 0.00 in0.0 mm 0.00 in0.0 mm
07:35 AM 52.0°F11.1°C 51.4°F10.8°C 98% 0.7 mph NE1.1 kmh NE 2.2 mph3.5 kmh 30.06 in1017.9 mb 0.00 in0.0 mm 0.00 in0.0 mm 0.00 in0.0 mm
07:40 AM 52.0°F11.1°C 51.4°F10.8°C 98% 0.7 mph NE1.1 kmh NE 1.6 mph2.6 kmh 30.06 in1017.9 mb 0.00 in0.0 mm 0.00 in0.0 mm 0.00 in0.0 mm
07:45 AM 52.0°F11.1°C 51.4°F10.8°C 98% Calm Calm 1.6 mph2.6 kmh 30.06 in1017.9 mb 0.00 in0.0 mm 0.00 in0.0 mm 0.00 in0.0 mm
07:50 AM 52.2°F11.2°C 51.6°F10.9°C 98% Calm Calm 1.6 mph2.6 kmh 30.06 in1017.9 mb 0.00 in0.0 mm 0.00 in0.0 mm 0.00 in0.0 mm
07:55 AM 52.3°F11.3°C 51.8°F11.0°C 98% Calm Calm -- 30.07 in1018.3 mb 0.00 in0.0 mm 0.00 in0.0 mm 0.00 in0.0 mm
08:00 AM 52.3°F11.3°C 51.8°F11.0°C 98% 2.2 mph NE3.5 kmh NE 3.1 mph5.0 kmh 30.07 in1018.3 mb 0.00 in0.0 mm 0.00 in0.0 mm 0.00 in0.0 mm
08:05 AM 52.7°F11.5°C 52.2°F11.2°C 98% 0.7 mph NNE1.1 kmh NNE 3.1 mph5.0 kmh 30.07 in1018.3 mb 0.00 in0.0 mm 0.00 in0.0 mm 0.00 in0.0 mm
08:10 AM 52.9°F11.6°C 52.3°F11.3°C 98% 0.7 mph NNE1.1 kmh NNE 3.1 mph5.0 kmh 30.07 in1018.3 mb 0.00 in0.0 mm 0.00 in0.0 mm 0.00 in0.0 mm
08:15 AM 53.6°F12.0°C 52.8°F11.6°C 97% 0.7 mph NNE1.1 kmh NNE 3.1 mph5.0 kmh 30.07 in1018.3 mb 0.00 in0.0 mm 0.00 in0.0 mm 0.00 in0.0 mm
08:20 AM 54.0°F12.2°C 53.1°F11.7°C 97% Calm Calm 3.1 mph5.0 kmh 30.07 in1018.3 mb 0.00 in0.0 mm 0.00 in0.0 mm 0.00 in0.0 mm
08:25 AM 54.3°F12.4°C 53.5°F11.9°C 97% 0.7 mph NNE1.1 kmh NNE 3.1 mph5.0 kmh 30.07 in1018.3 mb 0.00 in0.0 mm 0.00 in0.0 mm 0.00 in0.0 mm
08:30 AM 54.9°F12.7°C 54.0°F12.2°C 97% 1.6 mph ENE2.6 kmh ENE 2.2 mph3.5 kmh 30.07 in1018.3 mb 0.00 in0.0 mm 0.00 in0.0 mm 0.00 in0.0 mm
08:35 AM 55.4°F13.0°C 55.1°F12.8°C 99% 1.6 mph E2.6 kmh E 2.2 mph3.5 kmh 30.07 in1018.3 mb 0.00 in0.0 mm 0.00 in0.0 mm 0.00 in0.0 mm
08:40 AM 56.3°F13.5°C 56.0°F13.3°C 99% 0.7 mph ESE1.1 kmh ESE 2.2 mph3.5 kmh 30.08 in1018.6 mb 0.00 in0.0 mm 0.00 in0.0 mm 0.00 in0.0 mm
08:45 AM 57.4°F14.1°C 57.1°F13.9°C 99% Calm Calm 2.2 mph3.5 kmh 30.07 in1018.3 mb 0.00 in0.0 mm 0.00 in0.0 mm 0.00 in0.0 mm
08:50 AM 58.6°F14.8°C 58.4°F14.7°C 99% 0.7 mph SE1.1 kmh SE 2.2 mph3.5 kmh 30.07 in1018.3 mb 0.00 in0.0 mm 0.00 in0.0 mm 0.00 in0.0 mm
08:55 AM 59.2°F15.1°C 58.9°F14.9°C 99% Calm Calm 2.2 mph3.5 kmh 30.08 in1018.6 mb 0.00 in0.0 mm 0.00 in0.0 mm 0.00 in0.0 mm
09:00 AM 60.1°F15.6°C 59.2°F15.1°C 97% 0.7 mph SE1.1 kmh SE 3.1 mph5.0 kmh 30.08 in1018.6 mb 0.00 in0.0 mm 0.00 in0.0 mm 0.00 in0.0 mm
09:05 AM 61.0°F16.1°C 59.3°F15.2°C 94% 0.7 mph SE1.1 kmh SE 3.1 mph5.0 kmh 30.08 in1018.6 mb 0.00 in0.0 mm 0.00 in0.0 mm 0.00 in0.0 mm
09:10 AM 61.3°F16.3°C 59.0°F15.0°C 92% 1.6 mph E2.6 kmh E 3.8 mph6.1 kmh 30.08 in1018.6 mb 0.00 in0.0 mm 0.00 in0.0 mm 0.00 in0.0 mm
09:15 AM 61.5°F16.4°C 58.3°F14.6°C 89% Calm Calm 3.8 mph6.1 kmh 30.08 in1018.6 mb 0.00 in0.0 mm 0.00 in0.0 mm 0.00 in0.0 mm
09:20 AM 61.5°F16.4°C 57.6°F14.2°C 87% Calm Calm 3.8 mph6.1 kmh 30.08 in1018.6 mb 0.00 in0.0 mm 0.00 in0.0 mm 0.00 in0.0 mm
09:25 AM 61.5°F16.4°C 57.3°F14.1°C 86% 0.7 mph ENE1.1 kmh ENE 3.8 mph6.1 kmh 30.09 in1019.0 mb 0.00 in0.0 mm 0.00 in0.0 mm 0.00 in0.0 mm
09:30 AM 61.5°F16.4°C 57.3°F14.1°C 86% 2.2 mph E3.5 kmh E 3.8 mph6.1 kmh 30.09 in1019.0 mb 0.00 in0.0 mm 0.00 in0.0 mm 0.00 in0.0 mm
09:35 AM 61.9°F16.6°C 57.7°F14.3°C 86% 3.1 mph ENE5.0 kmh ENE 3.8 mph6.1 kmh 30.09 in1019.0 mb 0.00 in0.0 mm 0.00 in0.0 mm 0.00 in0.0 mm
09:40 AM 61.9°F16.6°C 57.7°F14.3°C 86% 2.2 mph NE3.5 kmh NE 4.5 mph7.2 kmh 30.09 in1019.0 mb 0.00 in0.0 mm 0.00 in0.0 mm 0.00 in0.0 mm
09:45 AM 62.1°F16.7°C 57.5°F14.2°C 85% 3.1 mph NNE5.0 kmh NNE 5.4 mph8.7 kmh 30.09 in1019.0 mb 0.00 in0.0 mm 0.00 in0.0 mm 0.00 in0.0 mm
09:50 AM 62.1°F16.7°C 57.8°F14.3°C 86% 2.2 mph NNE3.5 kmh NNE 5.4 mph8.7 kmh 30.09 in1019.0 mb 0.00 in0.0 mm 0.00 in0.0 mm 0.00 in0.0 mm
09:55 AM 62.6°F17.0°C 58.0°F14.4°C 85% 3.1 mph NE5.0 kmh NE 4.5 mph7.2 kmh 30.08 in1018.6 mb 0.00 in0.0 mm 0.00 in0.0 mm 0.00 in0.0 mm
10:00 AM 63.0°F17.2°C 58.1°F14.5°C 84% 2.2 mph ENE3.5 kmh ENE 5.4 mph8.7 kmh 30.09 in1019.0 mb 0.00 in0.0 mm 0.00 in0.0 mm 0.00 in0.0 mm
10:05 AM 63.1°F17.3°C 57.9°F14.4°C 83% 2.2 mph ENE3.5 kmh ENE 5.4 mph8.7 kmh 30.09 in1019.0 mb 0.00 in0.0 mm 0.00 in0.0 mm 0.00 in0.0 mm
10:10 AM 63.3°F17.4°C 58.1°F14.5°C 83% 1.6 mph ENE2.6 kmh ENE 5.4 mph8.7 kmh 30.09 in1019.0 mb 0.00 in0.0 mm 0.00 in0.0 mm 0.00 in0.0 mm
10:15 AM 63.7°F17.6°C 58.4°F14.7°C 83% 1.6 mph NE2.6 kmh NE 5.4 mph8.7 kmh 30.08 in1018.6 mb 0.00 in0.0 mm 0.00 in0.0 mm 0.00 in0.0 mm
10:20 AM 64.2°F17.9°C 59.0°F15.0°C 83% 1.6 mph NNE2.6 kmh NNE 5.4 mph8.7 kmh 30.09 in1019.0 mb 0.00 in0.0 mm 0.00 in0.0 mm 0.00 in0.0 mm
10:25 AM 64.8°F18.2°C 59.8°F15.4°C 84% 2.2 mph N3.5 kmh N 5.4 mph8.7 kmh 30.09 in1019.0 mb 0.00 in0.0 mm 0.00 in0.0 mm 0.00 in0.0 mm
10:30 AM 65.3°F18.5°C 60.0°F15.6°C 83% 2.2 mph NE3.5 kmh NE 3.8 mph6.1 kmh 30.09 in1019.0 mb 0.00 in0.0 mm 0.00 in0.0 mm 0.00 in0.0 mm
10:35 AM 66.0°F18.9°C 60.4°F15.8°C 82% 2.2 mph NE3.5 kmh NE 3.8 mph6.1 kmh 30.08 in1018.6 mb 0.00 in0.0 mm 0.00 in0.0 mm 0.00 in0.0 mm
10:40 AM 66.7°F19.3°C 60.4°F15.8°C 80% 2.2 mph NE3.5 kmh NE 4.5 mph7.2 kmh 30.08 in1018.6 mb 0.00 in0.0 mm 0.00 in0.0 mm 0.00 in0.0 mm
10:45 AM 68.2°F20.1°C 60.7°F15.9°C 77% 2.2 mph NNE3.5 kmh NNE 4.5 mph7.2 kmh 30.08 in1018.6 mb 0.00 in0.0 mm 0.00 in0.0 mm 0.00 in0.0 mm
10:50 AM 69.1°F20.6°C 60.5°F15.8°C 74% 1.6 mph NE2.6 kmh NE 5.4 mph8.7 kmh 30.08 in1018.6 mb 0.00 in0.0 mm 0.00 in0.0 mm 0.00 in0.0 mm
10:55 AM 69.6°F20.9°C 60.2°F15.7°C 72% Calm Calm 5.4 mph8.7 kmh 30.07 in1018.3 mb 0.00 in0.0 mm 0.00 in0.0 mm 0.00 in0.0 mm
11:00 AM 70.3°F21.3°C 59.7°F15.4°C 69% 2.2 mph NE3.5 kmh NE 5.4 mph8.7 kmh 30.08 in1018.6 mb 0.00 in0.0 mm 0.00 in0.0 mm 0.00 in0.0 mm
11:05 AM 70.3°F21.3°C 59.7°F15.4°C 69% 2.2 mph NNE3.5 kmh NNE 4.5 mph7.2 kmh 30.08 in1018.6 mb 0.00 in0.0 mm 0.00 in0.0 mm 0.00 in0.0 mm
11:10 AM 71.2°F21.8°C 60.2°F15.7°C 68% 3.1 mph NNE5.0 kmh NNE 4.5 mph7.2 kmh 30.08 in1018.6 mb 0.00 in0.0 mm 0.00 in0.0 mm 0.00 in0.0 mm
11:15 AM 71.4°F21.9°C 59.9°F15.5°C 67% 0.7 mph NE1.1 kmh NE 4.5 mph7.2 kmh 30.08 in1018.6 mb 0.00 in0.0 mm 0.00 in0.0 mm 0.00 in0.0 mm
11:20 AM 72.0°F22.2°C 59.6°F15.3°C 65% 2.2 mph ENE3.5 kmh ENE 5.4 mph8.7 kmh 30.07 in1018.3 mb 0.00 in0.0 mm 0.00 in0.0 mm 0.00 in0.0 mm
11:25 AM 72.3°F22.4°C 59.5°F15.3°C 64% 2.2 mph NE3.5 kmh NE 5.4 mph8.7 kmh 30.07 in1018.3 mb 0.00 in0.0 mm 0.00 in0.0 mm 0.00 in0.0 mm
11:30 AM 72.7°F22.6°C 59.8°F15.4°C 64% 0.7 mph N1.1 kmh N 4.5 mph7.2 kmh 30.07 in1018.3 mb 0.00 in0.0 mm 0.00 in0.0 mm 0.00 in0.0 mm
11:35 AM 73.4°F23.0°C 59.6°F15.3°C 62% Calm Calm 3.8 mph6.1 kmh 30.07 in1018.3 mb 0.00 in0.0 mm 0.00 in0.0 mm 0.00 in0.0 mm
11:40 AM 74.1°F23.4°C 60.8°F16.0°C 63% 0.7 mph S1.1 kmh S 3.1 mph5.0 kmh 30.07 in1018.3 mb 0.00 in0.0 mm 0.00 in0.0 mm 0.00 in0.0 mm
11:45 AM 74.1°F23.4°C 59.4°F15.2°C 60% 2.2 mph S3.5 kmh S 3.8 mph6.1 kmh 30.07 in1018.3 mb 0.00 in0.0 mm 0.00 in0.0 mm 0.00 in0.0 mm
11:50 AM 74.5°F23.6°C 60.2°F15.7°C 61% 1.6 mph SE2.6 kmh SE 3.8 mph6.1 kmh 30.08 in1018.6 mb 0.00 in0.0 mm 0.00 in0.0 mm 0.00 in0.0 mm
11:55 AM 75.2°F24.0°C 59.9°F15.5°C 59% 0.7 mph E1.1 kmh E 3.8 mph6.1 kmh 30.07 in1018.3 mb 0.00 in0.0 mm 0.00 in0.0 mm 0.00 in0.0 mm
12:00 PM 75.6°F24.2°C 59.8°F15.4°C 58% Calm Calm 3.8 mph6.1 kmh 30.07 in1018.3 mb 0.00 in0.0 mm 0.00 in0.0 mm 0.00 in0.0 mm
12:05 PM 76.1°F24.5°C 59.8°F15.4°C 57% 3.8 mph NE6.1 kmh NE 6.0 mph9.7 kmh 30.07 in1018.3 mb 0.00 in0.0 mm 0.00 in0.0 mm 0.00 in0.0 mm
12:10 PM 76.3°F24.6°C 60.0°F15.6°C 57% 2.2 mph E3.5 kmh E 6.0 mph9.7 kmh 30.07 in1018.3 mb 0.00 in0.0 mm 0.00 in0.0 mm 0.00 in0.0 mm
12:15 PM 76.6°F24.8°C 59.3°F15.2°C 55% 3.1 mph SE5.0 kmh SE 5.4 mph8.7 kmh 30.07 in1018.3 mb 0.00 in0.0 mm 0.00 in0.0 mm 0.00 in0.0 mm
12:20 PM 76.8°F24.9°C 59.0°F15.0°C 54% 2.2 mph ESE3.5 kmh ESE 5.4 mph8.7 kmh 30.07 in1018.3 mb 0.00 in0.0 mm 0.00 in0.0 mm 0.00 in0.0 mm
12:25 PM 77.2°F25.1°C 58.8°F14.9°C 53% 4.5 mph E7.2 kmh E 6.0 mph9.7 kmh 30.07 in1018.3 mb 0.00 in0.0 mm 0.00 in0.0 mm 0.00 in0.0 mm
12:30 PM 77.5°F25.3°C 58.0°F14.4°C 51% 0.7 mph SE1.1 kmh SE 6.0 mph9.7 kmh 30.06 in1017.9 mb 0.00 in0.0 mm 0.00 in0.0 mm 0.00 in0.0 mm
12:35 PM 77.7°F25.4°C 58.7°F14.8°C 52% 1.6 mph ESE2.6 kmh ESE 6.0 mph9.7 kmh 30.06 in1017.9 mb 0.00 in0.0 mm 0.00 in0.0 mm 0.00 in0.0 mm
12:40 PM 78.1°F25.6°C 57.4°F14.1°C 49% 1.6 mph E2.6 kmh E 6.9 mph11.1 kmh 30.06 in1017.9 mb 0.00 in0.0 mm 0.00 in0.0 mm 0.00 in0.0 mm
12:45 PM 78.1°F25.6°C 58.0°F14.4°C 50% 3.1 mph E5.0 kmh E 6.9 mph11.1 kmh 30.06 in1017.9 mb 0.00 in0.0 mm 0.00 in0.0 mm 0.00 in0.0 mm
12:50 PM 78.4°F25.8°C 56.6°F13.7°C 47% 2.2 mph ESE3.5 kmh ESE 4.5 mph7.2 kmh 30.06 in1017.9 mb 0.00 in0.0 mm 0.00 in0.0 mm 0.00 in0.0 mm
12:55 PM 78.6°F25.9°C 57.3°F14.1°C 48% 0.7 mph E1.1 kmh E 6.0 mph9.7 kmh 30.06 in1017.9 mb 0.00 in0.0 mm 0.00 in0.0 mm 0.00 in0.0 mm
01:00 PM 79.2°F26.2°C 57.2°F14.0°C 47% 1.6 mph E2.6 kmh E 6.0 mph9.7 kmh 30.06 in1017.9 mb 0.00 in0.0 mm 0.00 in0.0 mm 0.00 in0.0 mm
01:05 PM 79.2°F26.2°C 57.2°F14.0°C 47% 1.6 mph SSE2.6 kmh SSE 2.2 mph3.5 kmh 30.05 in1017.6 mb 0.00 in0.0 mm 0.00 in0.0 mm 0.00 in0.0 mm
01:10 PM 79.7°F26.5°C 55.9°F13.3°C 44% 2.2 mph SSE3.5 kmh SSE 3.8 mph6.1 kmh 30.05 in1017.6 mb 0.00 in0.0 mm 0.00 in0.0 mm 0.00 in0.0 mm
01:15 PM 79.9°F26.6°C 56.7°F13.7°C 45% 1.6 mph SSE2.6 kmh SSE 5.4 mph8.7 kmh 30.05 in1017.6 mb 0.00 in0.0 mm 0.00 in0.0 mm 0.00 in0.0 mm
01:20 PM 80.4°F26.9°C 56.6°F13.7°C 44% 3.1 mph S5.0 kmh S 5.4 mph8.7 kmh 30.04 in1017.3 mb 0.00 in0.0 mm 0.00 in0.0 mm 0.00 in0.0 mm
01:25 PM 80.6°F27.0°C 54.8°F12.7°C 41% 0.7 mph SSE1.1 kmh SSE 4.5 mph7.2 kmh 30.04 in1017.3 mb 0.00 in0.0 mm 0.00 in0.0 mm 0.00 in0.0 mm
01:30 PM 81.1°F27.3°C 55.9°F13.3°C 42% 2.2 mph SW3.5 kmh SW 4.5 mph7.2 kmh 30.04 in1017.3 mb 0.00 in0.0 mm 0.00 in0.0 mm 0.00 in0.0 mm
01:35 PM 81.3°F27.4°C 55.4°F13.0°C 41% 3.1 mph SSW5.0 kmh SSW 4.5 mph7.2 kmh 30.04 in1017.3 mb 0.00 in0.0 mm 0.00 in0.0 mm 0.00 in0.0 mm
01:40 PM 81.3°F27.4°C 55.4°F13.0°C 41% 2.2 mph SSW3.5 kmh SSW 5.4 mph8.7 kmh 30.04 in1017.3 mb 0.00 in0.0 mm 0.00 in0.0 mm 0.00 in0.0 mm
01:45 PM 81.7°F27.6°C 55.7°F13.2°C 41% 2.2 mph SSW3.5 kmh SSW 5.4 mph8.7 kmh 30.04 in1017.3 mb 0.00 in0.0 mm 0.00 in0.0 mm 0.00 in0.0 mm
01:50 PM 81.7°F27.6°C 55.7°F13.2°C 41% 1.6 mph WNW2.6 kmh WNW 5.4 mph8.7 kmh 30.04 in1017.3 mb 0.00 in0.0 mm 0.00 in0.0 mm 0.00 in0.0 mm
01:55 PM 81.7°F27.6°C 56.4°F13.6°C 42% 2.2 mph WNW3.5 kmh WNW 6.0 mph9.7 kmh 30.04 in1017.3 mb 0.00 in0.0 mm 0.00 in0.0 mm 0.00 in0.0 mm
02:00 PM 81.7°F27.6°C 55.1°F12.8°C 40% 0.7 mph W1.1 kmh W 6.0 mph9.7 kmh 30.04 in1017.3 mb 0.00 in0.0 mm 0.00 in0.0 mm 0.00 in0.0 mm
02:05 PM 81.9°F27.7°C 55.9°F13.3°C 41% 3.1 mph NW5.0 kmh NW 6.9 mph11.1 kmh 30.03 in1016.9 mb 0.00 in0.0 mm 0.00 in0.0 mm 0.00 in0.0 mm
02:10 PM 82.6°F28.1°C 55.9°F13.3°C 40% 3.1 mph N5.0 kmh N 6.9 mph11.1 kmh 30.03 in1016.9 mb 0.00 in0.0 mm 0.00 in0.0 mm 0.00 in0.0 mm
02:15 PM 83.1°F28.4°C 57.0°F13.9°C 41% Calm Calm 8.3 mph13.4 kmh 30.03 in1016.9 mb 0.00 in0.0 mm 0.00 in0.0 mm 0.00 in0.0 mm
02:20 PM 83.7°F28.7°C 56.1°F13.4°C 39% 3.1 mph N5.0 kmh N 8.3 mph13.4 kmh 30.03 in1016.9 mb 0.00 in0.0 mm 0.00 in0.0 mm 0.00 in0.0 mm
02:25 PM 83.8°F28.8°C 56.3°F13.5°C 39% 2.2 mph NE3.5 kmh NE 6.9 mph11.1 kmh 30.02 in1016.6 mb 0.00 in0.0 mm 0.00 in0.0 mm 0.00 in0.0 mm
02:30 PM 84.2°F29.0°C 55.2°F12.9°C 37% 2.2 mph E3.5 kmh E 6.0 mph9.7 kmh 30.02 in1016.6 mb 0.00 in0.0 mm 0.00 in0.0 mm 0.00 in0.0 mm
02:35 PM 84.7°F29.3°C 55.6°F13.1°C 37% 2.2 mph SE3.5 kmh SE 4.5 mph7.2 kmh 30.02 in1016.6 mb 0.00 in0.0 mm 0.00 in0.0 mm 0.00 in0.0 mm
02:40 PM 85.1°F29.5°C 55.2°F12.9°C 36% 0.7 mph ESE1.1 kmh ESE 4.5 mph7.2 kmh 30.02 in1016.6 mb 0.00 in0.0 mm 0.00 in0.0 mm 0.00 in0.0 mm
02:45 PM 85.5°F29.7°C 55.5°F13.1°C 36% 3.8 mph NE6.1 kmh NE 5.4 mph8.7 kmh 30.02 in1016.6 mb 0.00 in0.0 mm 0.00 in0.0 mm 0.00 in0.0 mm
02:50 PM 85.5°F29.7°C 54.7°F12.6°C 35% 0.7 mph SSW1.1 kmh SSW 5.4 mph8.7 kmh 30.02 in1016.6 mb 0.00 in0.0 mm 0.00 in0.0 mm 0.00 in0.0 mm
02:55 PM 86.4°F30.2°C 55.5°F13.1°C 35% 2.2 mph SW3.5 kmh SW 5.4 mph8.7 kmh 30.02 in1016.6 mb 0.00 in0.0 mm 0.00 in0.0 mm 0.00 in0.0 mm
03:00 PM 86.7°F30.4°C 56.6°F13.7°C 36% 4.5 mph SSE7.2 kmh SSE 6.0 mph9.7 kmh 30.02 in1016.6 mb 0.00 in0.0 mm 0.00 in0.0 mm 0.00 in0.0 mm
03:05 PM 86.7°F30.4°C 56.6°F13.7°C 36% 4.5 mph SSE7.2 kmh SSE 6.0 mph9.7 kmh 30.02 in1016.6 mb 0.00 in0.0 mm 0.00 in0.0 mm 0.00 in0.0 mm
03:10 PM 86.7°F30.4°C 55.8°F13.2°C 35% 2.2 mph SSW3.5 kmh SSW 6.0 mph9.7 kmh 30.01 in1016.3 mb 0.00 in0.0 mm 0.00 in0.0 mm 0.00 in0.0 mm
03:15 PM 86.7°F30.4°C 56.6°F13.7°C 36% Calm Calm 6.0 mph9.7 kmh 30.01 in1016.3 mb 0.00 in0.0 mm 0.00 in0.0 mm 0.00 in0.0 mm
03:20 PM 86.9°F30.5°C 56.0°F13.3°C 35% 3.8 mph W6.1 kmh W 6.9 mph11.1 kmh 30.01 in1016.3 mb 0.00 in0.0 mm 0.00 in0.0 mm 0.00 in0.0 mm
03:25 PM 86.7°F30.4°C 56.6°F13.7°C 36% 0.7 mph NW1.1 kmh NW 6.9 mph11.1 kmh 30.01 in1016.3 mb 0.00 in0.0 mm 0.00 in0.0 mm 0.00 in0.0 mm
03:30 PM 86.7°F30.4°C 55.0°F12.8°C 34% 3.1 mph WNW5.0 kmh WNW 6.9 mph11.1 kmh 30.01 in1016.3 mb 0.00 in0.0 mm 0.00 in0.0 mm 0.00 in0.0 mm
03:35 PM 86.7°F30.4°C 55.0°F12.8°C 34% 5.4 mph W8.7 kmh W 6.9 mph11.1 kmh 30.00 in1015.9 mb 0.00 in0.0 mm 0.00 in0.0 mm 0.00 in0.0 mm
03:40 PM 86.7°F30.4°C 54.2°F12.3°C 33% 0.7 mph WSW1.1 kmh WSW 6.9 mph11.1 kmh 30.00 in1015.9 mb 0.00 in0.0 mm 0.00 in0.0 mm 0.00 in0.0 mm
03:45 PM 86.9°F30.5°C 56.0°F13.3°C 35% 4.5 mph WNW7.2 kmh WNW 6.0 mph9.7 kmh 30.00 in1015.9 mb 0.00 in0.0 mm 0.00 in0.0 mm 0.00 in0.0 mm
03:50 PM 87.3°F30.7°C 57.1°F13.9°C 36% 3.8 mph NNW6.1 kmh NNW 6.0 mph9.7 kmh 30.00 in1015.9 mb 0.00 in0.0 mm 0.00 in0.0 mm 0.00 in0.0 mm
03:55 PM 87.4°F30.8°C 55.7°F13.2°C 34% 2.2 mph NW3.5 kmh NW 9.2 mph14.8 kmh 30.00 in1015.9 mb 0.00 in0.0 mm 0.00 in0.0 mm 0.00 in0.0 mm
04:00 PM 86.4°F30.2°C 53.9°F12.2°C 33% 2.2 mph WSW3.5 kmh WSW 9.2 mph14.8 kmh 30.00 in1015.9 mb 0.00 in0.0 mm 0.00 in0.0 mm 0.00 in0.0 mm
04:05 PM 85.3°F29.6°C 54.6°F12.6°C 35% Calm Calm 6.9 mph11.1 kmh 29.99 in1015.6 mb 0.00 in0.0 mm 0.00 in0.0 mm 0.00 in0.0 mm
04:10 PM 84.4°F29.1°C 54.6°F12.6°C 36% 2.2 mph W3.5 kmh W 6.0 mph9.7 kmh 30.00 in1015.9 mb 0.00 in0.0 mm 0.00 in0.0 mm 0.00 in0.0 mm
04:15 PM 83.5°F28.6°C 54.5°F12.5°C 37% 0.7 mph WSW1.1 kmh WSW 4.5 mph7.2 kmh 30.00 in1015.9 mb 0.00 in0.0 mm 0.00 in0.0 mm 0.00 in0.0 mm
04:20 PM 83.1°F28.4°C 54.2°F12.3°C 37% 2.2 mph SW3.5 kmh SW 3.8 mph6.1 kmh 30.00 in1015.9 mb 0.00 in0.0 mm 0.00 in0.0 mm 0.00 in0.0 mm
04:25 PM 82.8°F28.2°C 56.0°F13.3°C 40% 3.8 mph N6.1 kmh N 9.2 mph14.8 kmh 29.99 in1015.6 mb 0.00 in0.0 mm 0.00 in0.0 mm 0.00 in0.0 mm
04:30 PM 82.0°F27.8°C 55.4°F13.0°C 40% 3.1 mph NE5.0 kmh NE 9.2 mph14.8 kmh 29.99 in1015.6 mb 0.00 in0.0 mm 0.00 in0.0 mm 0.00 in0.0 mm
04:35 PM 81.5°F27.5°C 55.6°F13.1°C 41% 3.1 mph NE5.0 kmh NE 7.6 mph12.2 kmh 29.99 in1015.6 mb 0.00 in0.0 mm 0.00 in0.0 mm 0.00 in0.0 mm
04:40 PM 81.1°F27.3°C 55.2°F12.9°C 41% 2.2 mph NE3.5 kmh NE 5.4 mph8.7 kmh 29.99 in1015.6 mb 0.00 in0.0 mm 0.00 in0.0 mm 0.00 in0.0 mm
04:45 PM 81.0°F27.2°C 55.1°F12.8°C 41% 2.2 mph E3.5 kmh E 6.9 mph11.1 kmh 29.99 in1015.6 mb 0.00 in0.0 mm 0.00 in0.0 mm 0.00 in0.0 mm
04:50 PM 80.8°F27.1°C 55.6°F13.1°C 42% 2.2 mph ENE3.5 kmh ENE 7.6 mph12.2 kmh 29.99 in1015.6 mb 0.00 in0.0 mm 0.00 in0.0 mm 0.00 in0.0 mm
04:55 PM 80.6°F27.0°C 55.4°F13.0°C 42% 2.2 mph NNE3.5 kmh NNE 7.6 mph12.2 kmh 29.99 in1015.6 mb 0.00 in0.0 mm 0.00 in0.0 mm 0.00 in0.0 mm
05:00 PM 80.6°F27.0°C 54.8°F12.7°C 41% 2.2 mph NNE3.5 kmh NNE 6.9 mph11.1 kmh 29.99 in1015.6 mb 0.00 in0.0 mm 0.00 in0.0 mm 0.00 in0.0 mm
05:05 PM 80.6°F27.0°C 54.8°F12.7°C 41% 2.2 mph NE3.5 kmh NE 4.5 mph7.2 kmh 30.00 in1015.9 mb 0.00 in0.0 mm 0.00 in0.0 mm 0.00 in0.0 mm
05:10 PM 80.6°F27.0°C 55.4°F13.0°C 42% 3.1 mph NE5.0 kmh NE 4.5 mph7.2 kmh 29.99 in1015.6 mb 0.00 in0.0 mm 0.00 in0.0 mm 0.00 in0.0 mm
05:15 PM 80.4°F26.9°C 56.6°F13.7°C 44% 0.7 mph ENE1.1 kmh ENE 4.5 mph7.2 kmh 29.99 in1015.6 mb 0.00 in0.0 mm 0.00 in0.0 mm 0.00 in0.0 mm
05:20 PM 80.4°F26.9°C 56.6°F13.7°C 44% 0.7 mph NNE1.1 kmh NNE 3.8 mph6.1 kmh 29.99 in1015.6 mb 0.00 in0.0 mm 0.00 in0.0 mm 0.00 in0.0 mm
05:25 PM 80.2°F26.8°C 56.4°F13.6°C 44% 1.6 mph NNE2.6 kmh NNE 3.1 mph5.0 kmh 29.99 in1015.6 mb 0.00 in0.0 mm 0.00 in0.0 mm 0.00 in0.0 mm
05:30 PM 80.2°F26.8°C 57.0°F13.9°C 45% Calm Calm 3.1 mph5.0 kmh 29.99 in1015.6 mb 0.00 in0.0 mm 0.00 in0.0 mm 0.00 in0.0 mm
05:35 PM 80.1°F26.7°C 57.5°F14.2°C 46% 0.7 mph E1.1 kmh E 2.2 mph3.5 kmh 29.99 in1015.6 mb 0.00 in0.0 mm 0.00 in0.0 mm 0.00 in0.0 mm
05:40 PM 79.7°F26.5°C 58.3°F14.6°C 48% Calm Calm 2.2 mph3.5 kmh 29.99 in1015.6 mb 0.00 in0.0 mm 0.00 in0.0 mm 0.00 in0.0 mm
05:45 PM 79.5°F26.4°C 59.3°F15.2°C 50% Calm Calm 2.2 mph3.5 kmh 29.99 in1015.6 mb 0.00 in0.0 mm 0.00 in0.0 mm 0.00 in0.0 mm
05:50 PM 79.0°F26.1°C 58.8°F14.9°C 50% Calm Calm 1.6 mph2.6 kmh 29.99 in1015.6 mb 0.00 in0.0 mm 0.00 in0.0 mm 0.00 in0.0 mm
05:55 PM 78.4°F25.8°C 59.4°F15.2°C 52% Calm Calm 0.7 mph1.1 kmh 29.99 in1015.6 mb 0.00 in0.0 mm 0.00 in0.0 mm 0.00 in0.0 mm
06:00 PM 77.9°F25.5°C 59.4°F15.2°C 53% 0.7 mph E1.1 kmh E 1.6 mph2.6 kmh 29.98 in1015.2 mb 0.00 in0.0 mm 0.00 in0.0 mm 0.00 in0.0 mm
06:05 PM 77.5°F25.3°C 59.6°F15.3°C 54% Calm Calm 2.2 mph3.5 kmh 29.99 in1015.6 mb 0.00 in0.0 mm 0.00 in0.0 mm 0.00 in0.0 mm
06:10 PM 77.2°F25.1°C 58.8°F14.9°C 53% 0.7 mph S1.1 kmh S 2.2 mph3.5 kmh 29.99 in1015.6 mb 0.00 in0.0 mm 0.00 in0.0 mm 0.00 in0.0 mm
06:15 PM 76.8°F24.9°C 60.0°F15.6°C 56% 0.7 mph SSE1.1 kmh SSE 2.2 mph3.5 kmh 29.99 in1015.6 mb 0.00 in0.0 mm 0.00 in0.0 mm 0.00 in0.0 mm
06:20 PM 76.1°F24.5°C 59.8°F15.4°C 57% 1.6 mph N2.6 kmh N 2.2 mph3.5 kmh 29.99 in1015.6 mb 0.00 in0.0 mm 0.00 in0.0 mm 0.00 in0.0 mm
06:25 PM 75.4°F24.1°C 59.6°F15.3°C 58% Calm Calm 2.2 mph3.5 kmh 29.99 in1015.6 mb 0.00 in0.0 mm 0.00 in0.0 mm 0.00 in0.0 mm
06:30 PM 74.7°F23.7°C 59.9°F15.5°C 60% Calm Calm 2.2 mph3.5 kmh 29.99 in1015.6 mb 0.00 in0.0 mm 0.00 in0.0 mm 0.00 in0.0 mm
06:35 PM 74.3°F23.5°C 60.5°F15.8°C 62% Calm Calm -- 30.00 in1015.9 mb 0.00 in0.0 mm 0.00 in0.0 mm 0.00 in0.0 mm
06:40 PM 73.9°F23.3°C 61.0°F16.1°C 64% Calm Calm 0.7 mph1.1 kmh 29.99 in1015.6 mb 0.00 in0.0 mm 0.00 in0.0 mm 0.00 in0.0 mm
06:45 PM 73.8°F23.2°C 61.3°F16.3°C 65% Calm Calm 0.7 mph1.1 kmh 29.99 in1015.6 mb 0.00 in0.0 mm 0.00 in0.0 mm 0.00 in0.0 mm
06:50 PM 73.8°F23.2°C 61.3°F16.3°C 65% Calm Calm 0.7 mph1.1 kmh 30.00 in1015.9 mb 0.00 in0.0 mm 0.00 in0.0 mm 0.00 in0.0 mm
06:55 PM 73.9°F23.3°C 61.5°F16.4°C 65% Calm Calm 0.7 mph1.1 kmh 30.00 in1015.9 mb 0.00 in0.0 mm 0.00 in0.0 mm 0.00 in0.0 mm
07:00 PM 73.8°F23.2°C 61.3°F16.3°C 65% Calm Calm 0.7 mph1.1 kmh 30.00 in1015.9 mb 0.00 in0.0 mm 0.00 in0.0 mm 0.00 in0.0 mm
07:05 PM 73.8°F23.2°C 61.3°F16.3°C 65% Calm Calm 0.7 mph1.1 kmh 30.00 in1015.9 mb 0.00 in0.0 mm 0.00 in0.0 mm 0.00 in0.0 mm
07:10 PM 72.9°F22.7°C 60.9°F16.1°C 66% Calm Calm 0.7 mph1.1 kmh 30.00 in1015.9 mb 0.00 in0.0 mm 0.00 in0.0 mm 0.00 in0.0 mm
07:15 PM 72.3°F22.4°C 60.4°F15.8°C 66% 0.7 mph NE1.1 kmh NE 1.6 mph2.6 kmh 30.01 in1016.3 mb 0.00 in0.0 mm 0.00 in0.0 mm 0.00 in0.0 mm
07:20 PM 71.8°F22.1°C 60.3°F15.7°C 67% 0.7 mph N1.1 kmh N 1.6 mph2.6 kmh 30.00 in1015.9 mb 0.00 in0.0 mm 0.00 in0.0 mm 0.00 in0.0 mm
07:25 PM 71.2°F21.8°C 60.2°F15.7°C 68% Calm Calm 1.6 mph2.6 kmh 30.01 in1016.3 mb 0.00 in0.0 mm 0.00 in0.0 mm 0.00 in0.0 mm
07:30 PM 70.7°F21.5°C 60.1°F15.6°C 69% Calm Calm 1.6 mph2.6 kmh 30.01 in1016.3 mb 0.00 in0.0 mm 0.00 in0.0 mm 0.00 in0.0 mm
07:35 PM 70.2°F21.2°C 59.5°F15.3°C 69% Calm Calm 1.6 mph2.6 kmh 30.01 in1016.3 mb 0.00 in0.0 mm 0.00 in0.0 mm 0.00 in0.0 mm
07:40 PM 69.6°F20.9°C 59.8°F15.4°C 71% 0.7 mph NNE1.1 kmh NNE 2.2 mph3.5 kmh 30.01 in1016.3 mb 0.00 in0.0 mm 0.00 in0.0 mm 0.00 in0.0 mm
07:45 PM 69.1°F20.6°C 59.3°F15.2°C 71% 0.7 mph NE1.1 kmh NE 2.2 mph3.5 kmh 30.01 in1016.3 mb 0.00 in0.0 mm 0.00 in0.0 mm 0.00 in0.0 mm
07:50 PM 68.7°F20.4°C 59.4°F15.2°C 72% 0.7 mph NE1.1 kmh NE 3.1 mph5.0 kmh 30.01 in1016.3 mb 0.00 in0.0 mm 0.00 in0.0 mm 0.00 in0.0 mm
07:55 PM 68.2°F20.1°C 59.2°F15.1°C 73% 1.6 mph NE2.6 kmh NE 3.1 mph5.0 kmh 30.01 in1016.3 mb 0.00 in0.0 mm 0.00 in0.0 mm 0.00 in0.0 mm
08:00 PM 67.8°F19.9°C 59.6°F15.3°C 75% 0.7 mph NE1.1 kmh NE 2.2 mph3.5 kmh 30.01 in1016.3 mb 0.00 in0.0 mm 0.00 in0.0 mm 0.00 in0.0 mm
08:05 PM 67.3°F19.6°C 59.1°F15.1°C 75% 1.6 mph NE2.6 kmh NE 2.2 mph3.5 kmh 30.02 in1016.6 mb 0.00 in0.0 mm 0.00 in0.0 mm 0.00 in0.0 mm
08:10 PM 66.9°F19.4°C 58.8°F14.9°C 75% 0.7 mph NE1.1 kmh NE 2.2 mph3.5 kmh 30.02 in1016.6 mb 0.00 in0.0 mm 0.00 in0.0 mm 0.00 in0.0 mm
08:15 PM 66.6°F19.2°C 58.8°F14.9°C 76% 0.7 mph NE1.1 kmh NE 3.1 mph5.0 kmh 30.02 in1016.6 mb 0.00 in0.0 mm 0.00 in0.0 mm 0.00 in0.0 mm
08:20 PM 66.4°F19.1°C 59.0°F15.0°C 77% 1.6 mph NNE2.6 kmh NNE 3.1 mph5.0 kmh 30.02 in1016.6 mb 0.00 in0.0 mm 0.00 in0.0 mm 0.00 in0.0 mm
08:25 PM 66.2°F19.0°C 58.8°F14.9°C 77% 1.6 mph NW2.6 kmh NW 3.1 mph5.0 kmh 30.03 in1016.9 mb 0.00 in0.0 mm 0.00 in0.0 mm 0.00 in0.0 mm
08:30 PM 65.8°F18.8°C 58.8°F14.9°C 78% Calm Calm 3.1 mph5.0 kmh 30.03 in1016.9 mb 0.00 in0.0 mm 0.00 in0.0 mm 0.00 in0.0 mm
08:35 PM 65.8°F18.8°C 58.4°F14.7°C 77% 0.7 mph WNW1.1 kmh WNW 3.1 mph5.0 kmh 30.03 in1016.9 mb 0.00 in0.0 mm 0.00 in0.0 mm 0.00 in0.0 mm
08:40 PM 66.0°F18.9°C 58.6°F14.8°C 77% 1.6 mph ENE2.6 kmh ENE 3.8 mph6.1 kmh 30.03 in1016.9 mb 0.00 in0.0 mm 0.00 in0.0 mm 0.00 in0.0 mm
08:45 PM 66.4°F19.1°C 58.2°F14.6°C 75% 2.2 mph E3.5 kmh E 3.8 mph6.1 kmh 30.03 in1016.9 mb 0.00 in0.0 mm 0.00 in0.0 mm 0.00 in0.0 mm
08:50 PM 66.7°F19.3°C 58.6°F14.8°C 75% 1.6 mph E2.6 kmh E 3.8 mph6.1 kmh 30.03 in1016.9 mb 0.00 in0.0 mm 0.00 in0.0 mm 0.00 in0.0 mm
08:55 PM 66.9°F19.4°C 58.4°F14.7°C 74% 2.2 mph E3.5 kmh E 3.8 mph6.1 kmh 30.03 in1016.9 mb 0.00 in0.0 mm 0.00 in0.0 mm 0.00 in0.0 mm
09:00 PM 66.9°F19.4°C 58.4°F14.7°C 74% 2.2 mph E3.5 kmh E 4.5 mph7.2 kmh 30.03 in1016.9 mb 0.00 in0.0 mm 0.00 in0.0 mm 0.00 in0.0 mm
09:05 PM 66.6°F19.2°C 58.0°F14.4°C 74% 1.6 mph E2.6 kmh E 4.5 mph7.2 kmh 30.03 in1016.9 mb 0.00 in0.0 mm 0.00 in0.0 mm 0.00 in0.0 mm
09:10 PM 66.4°F19.1°C 57.9°F14.4°C 74% 2.2 mph E3.5 kmh E 4.5 mph7.2 kmh 30.04 in1017.3 mb 0.00 in0.0 mm 0.00 in0.0 mm 0.00 in0.0 mm
09:15 PM 66.0°F18.9°C 58.3°F14.6°C 76% 0.7 mph ESE1.1 kmh ESE 4.5 mph7.2 kmh 30.03 in1016.9 mb 0.00 in0.0 mm 0.00 in0.0 mm 0.00 in0.0 mm
09:20 PM 65.7°F18.7°C 57.9°F14.4°C 76% 1.6 mph E2.6 kmh E 3.1 mph5.0 kmh 30.04 in1017.3 mb 0.00 in0.0 mm 0.00 in0.0 mm 0.00 in0.0 mm
09:25 PM 65.5°F18.6°C 57.7°F14.3°C 76% 1.6 mph NE2.6 kmh NE 2.2 mph3.5 kmh 30.04 in1017.3 mb 0.00 in0.0 mm 0.00 in0.0 mm 0.00 in0.0 mm
09:30 PM 64.9°F18.3°C 57.6°F14.2°C 77% 0.7 mph NE1.1 kmh NE 3.1 mph5.0 kmh 30.04 in1017.3 mb 0.00 in0.0 mm 0.00 in0.0 mm 0.00 in0.0 mm
09:35 PM 64.6°F18.1°C 57.6°F14.2°C 78% 0.7 mph NE1.1 kmh NE 3.1 mph5.0 kmh 30.04 in1017.3 mb 0.00 in0.0 mm 0.00 in0.0 mm 0.00 in0.0 mm
09:40 PM 64.0°F17.8°C 57.4°F14.1°C 79% 1.6 mph NNE2.6 kmh NNE 3.1 mph5.0 kmh 30.04 in1017.3 mb 0.00 in0.0 mm 0.00 in0.0 mm 0.00 in0.0 mm
09:45 PM 63.7°F17.6°C 57.1°F13.9°C 79% 0.7 mph NNE1.1 kmh NNE 3.1 mph5.0 kmh 30.04 in1017.3 mb 0.00 in0.0 mm 0.00 in0.0 mm 0.00 in0.0 mm
09:50 PM 63.3°F17.4°C 56.7°F13.7°C 79% 0.7 mph E1.1 kmh E 2.2 mph3.5 kmh 30.04 in1017.3 mb 0.00 in0.0 mm 0.00 in0.0 mm 0.00 in0.0 mm
09:55 PM 63.1°F17.3°C 56.9°F13.8°C 80% Calm Calm 2.2 mph3.5 kmh 30.04 in1017.3 mb 0.00 in0.0 mm 0.00 in0.0 mm 0.00 in0.0 mm
10:00 PM 63.0°F17.2°C 56.7°F13.7°C 80% Calm Calm 2.2 mph3.5 kmh 30.05 in1017.6 mb 0.00 in0.0 mm 0.00 in0.0 mm 0.00 in0.0 mm
10:05 PM 63.0°F17.2°C 57.1°F13.9°C 81% 2.2 mph NE3.5 kmh NE 2.2 mph3.5 kmh 30.05 in1017.6 mb 0.00 in0.0 mm 0.00 in0.0 mm 0.00 in0.0 mm
10:10 PM 62.6°F17.0°C 56.7°F13.7°C 81% Calm Calm 2.2 mph3.5 kmh 30.04 in1017.3 mb 0.00 in0.0 mm 0.00 in0.0 mm 0.00 in0.0 mm
10:15 PM 62.4°F16.9°C 56.9°F13.8°C 82% 0.7 mph E1.1 kmh E 2.2 mph3.5 kmh 30.05 in1017.6 mb 0.00 in0.0 mm 0.00 in0.0 mm 0.00 in0.0 mm
10:20 PM 62.2°F16.8°C 57.0°F13.9°C 83% 0.7 mph NNE1.1 kmh NNE 2.2 mph3.5 kmh 30.06 in1017.9 mb 0.00 in0.0 mm 0.00 in0.0 mm 0.00 in0.0 mm
10:25 PM 61.9°F16.6°C 56.7°F13.7°C 83% Calm Calm 2.2 mph3.5 kmh 30.05 in1017.6 mb 0.00 in0.0 mm 0.00 in0.0 mm 0.00 in0.0 mm
10:30 PM 61.9°F16.6°C 56.7°F13.7°C 83% 0.7 mph SSW1.1 kmh SSW 2.2 mph3.5 kmh 30.05 in1017.6 mb 0.00 in0.0 mm 0.00 in0.0 mm 0.00 in0.0 mm
10:35 PM 62.1°F16.7°C 56.9°F13.8°C 83% 3.1 mph ESE5.0 kmh ESE 3.8 mph6.1 kmh 30.05 in1017.6 mb 0.00 in0.0 mm 0.00 in0.0 mm 0.00 in0.0 mm
10:40 PM 62.2°F16.8°C 57.0°F13.9°C 83% 0.7 mph ENE1.1 kmh ENE 4.5 mph7.2 kmh 30.05 in1017.6 mb 0.00 in0.0 mm 0.00 in0.0 mm 0.00 in0.0 mm
10:45 PM 62.2°F16.8°C 57.0°F13.9°C 83% 1.6 mph ENE2.6 kmh ENE 4.5 mph7.2 kmh 30.06 in1017.9 mb 0.00 in0.0 mm 0.00 in0.0 mm 0.00 in0.0 mm
10:50 PM 62.2°F16.8°C 57.0°F13.9°C 83% Calm Calm 2.2 mph3.5 kmh 30.06 in1017.9 mb 0.00 in0.0 mm 0.00 in0.0 mm 0.00 in0.0 mm
10:55 PM 62.2°F16.8°C 57.0°F13.9°C 83% 1.6 mph NE2.6 kmh NE 2.2 mph3.5 kmh 30.06 in1017.9 mb 0.00 in0.0 mm 0.00 in0.0 mm 0.00 in0.0 mm
11:00 PM 62.1°F16.7°C 56.9°F13.8°C 83% 2.2 mph N3.5 kmh N 3.1 mph5.0 kmh 30.06 in1017.9 mb 0.00 in0.0 mm 0.00 in0.0 mm 0.00 in0.0 mm
11:05 PM 62.1°F16.7°C 56.9°F13.8°C 83% 2.2 mph N3.5 kmh N 3.1 mph5.0 kmh 30.06 in1017.9 mb 0.00 in0.0 mm 0.00 in0.0 mm 0.00 in0.0 mm
11:10 PM 62.1°F16.7°C 56.9°F13.8°C 83% Calm Calm 3.1 mph5.0 kmh 30.06 in1017.9 mb 0.00 in0.0 mm 0.00 in0.0 mm 0.00 in0.0 mm
11:15 PM 61.9°F16.6°C 56.7°F13.7°C 83% 0.7 mph NNE1.1 kmh NNE 3.1 mph5.0 kmh 30.06 in1017.9 mb 0.00 in0.0 mm 0.00 in0.0 mm 0.00 in0.0 mm
11:20 PM 61.9°F16.6°C 57.0°F13.9°C 84% Calm Calm 2.2 mph3.5 kmh 30.06 in1017.9 mb 0.00 in0.0 mm 0.00 in0.0 mm 0.00 in0.0 mm
11:25 PM 61.9°F16.6°C 56.7°F13.7°C 83% 0.7 mph SE1.1 kmh SE 2.2 mph3.5 kmh 30.06 in1017.9 mb 0.00 in0.0 mm 0.00 in0.0 mm 0.00 in0.0 mm
11:30 PM 61.9°F16.6°C 56.7°F13.7°C 83% Calm Calm 2.2 mph3.5 kmh 30.06 in1017.9 mb 0.00 in0.0 mm 0.00 in0.0 mm 0.00 in0.0 mm
11:35 PM 61.7°F16.5°C 56.8°F13.8°C 84% Calm Calm 2.2 mph3.5 kmh 30.06 in1017.9 mb 0.00 in0.0 mm 0.00 in0.0 mm 0.00 in0.0 mm
11:40 PM 61.5°F16.4°C 56.7°F13.7°C 84% Calm Calm -- 30.06 in1017.9 mb 0.00 in0.0 mm 0.00 in0.0 mm 0.00 in0.0 mm
11:45 PM 61.3°F16.3°C 56.5°F13.6°C 84% Calm Calm -- 30.06 in1017.9 mb 0.00 in0.0 mm 0.00 in0.0 mm 0.00 in0.0 mm
11:50 PM 61.0°F16.1°C 56.1°F13.4°C 84% Calm Calm -- 30.06 in1017.9 mb 0.00 in0.0 mm 0.00 in0.0 mm 0.00 in0.0 mm
11:55 PM 60.8°F16.0°C 56.3°F13.5°C 85% Calm Calm -- 30.06 in1017.9 mb 0.00 in0.0 mm 0.00 in0.0 mm 0.00 in0.0 mm